Smithville, Missouri
Current Conditions -  °F | °C
As of 3:53 PM on Wednesday 26 Nov 2014 (Local Time) from KMCI Reporting Station
Overcast Overcast  
Wind Chill: 22°   Ceiling: 1800
Heat Index: 34°   Visibility: 10mi
Dew Point: 27°   Wind: 24mph
Humidity: 75%   Direction: 330°NNW
Pressure: 30.13"   Gusts: 31mph
Location:  39.39°N, 94.58°W
Report Text: KMCI 262153Z 33021G27KT 10SM OVC018 01/M03 A3013 RMK AO2 PK WND 32028/2124 SLP208 T00111028
Loading
Personal Weather Stations






























Interactive Weather Map New forecast layout! Learn more

10-Day Weather Forecast

Advertisements
Track Severe Weather on mobile